Current Weather

Quonset State Airport

Quonset State Airport, Rhode Island (KOQU)

Report from: Saturday, May 21, 2022 4:50 PM EDT
Current time: Sunday, May 22, 2022 3:20 AM EDT

Nearby weather
Weather history
Weather forecast

Temperature21.0°C (69.8°F)
Dew point15.0°C (59.0°F)
Winds 20 kts (10.3 m/s, 23 mph) South-Southwest (200°)
Visibility10 mi. (16.1 km)
Clouds Scattered clouds 25,000 ft. (7,620 m)
Altimeter29.98 in.Hg (1015 mB)
Relative humidity69 %
Density altitude869 ft. (265 m)
Remarks Last observation of the day
Flight conditions Visual Meteorological Conditions
Raw dataKOQU 212050Z 20020KT 10SM SCT250 21/15 A2998 RMK LAST
An error has occurred. This application may no longer respond until reloaded. Reload 🗙